Time;durP1;ratioP1;P1;durP2;ratioP2;P2;SDS_P1;SDS_P2;PMS_P1;PMS_P2;Temp;Humidity;BMP_temperature;BMP_pressure;BME280_temperature;BME280_humidity;BME280_pressure;Samples;Min_cycle;Max_cycle;Signal;HPM_P1;HPM_P2
2021/12/17 00:00:17;;;;;;;24.77;16.77;;;;;;;2.89;100.00;98403.56;5101315;28;20440;-74
2021/12/17 00:05:17;;;;;;;33.70;19.53;;;;;;;2.56;100.00;98392.81;5091086;28;20486;-73
2021/12/17 00:07:44;;;;;;;41.23;23.40;;;;;;;2.56;100.00;98404.06;5106398;28;20460;-74
2021/12/17 00:10:15;;;;;;;26.23;18.50;;;;;;;2.60;100.00;98401.78;5090510;28;20462;-74
2021/12/17 00:12:42;;;;;;;36.47;20.23;;;;;;;2.46;100.00;98403.78;5090087;28;20437;-74
2021/12/17 00:15:09;;;;;;;30.90;17.90;;;;;;;2.47;100.00;98388.94;5087522;28;20420;-74
2021/12/17 00:17:46;;;;;;;51.93;21.20;;;;;;;2.36;100.00;98382.66;5070984;28;20525;-73
2021/12/17 00:51:17;;;;;;;48.37;17.30;;;;;;;1.70;100.00;98370.44;5072729;28;20429;-73
2021/12/17 00:53:34;;;;;;;35.87;14.30;;;;;;;1.06;100.00;98367.28;5089287;28;20470;-73
2021/12/17 00:56:01;;;;;;;43.00;16.17;;;;;;;1.10;100.00;98376.28;5072515;28;20440;-73
2021/12/17 00:58:29;;;;;;;41.33;14.37;;;;;;;1.28;100.00;98379.91;5089247;28;20447;-73
2021/12/17 01:00:56;;;;;;;42.10;14.83;;;;;;;1.35;100.00;98376.25;5072641;28;20445;-74
2021/12/17 01:03:25;;;;;;;26.87;13.03;;;;;;;1.35;100.00;98365.81;5072316;28;20538;-74
2021/12/17 01:05:53;;;;;;;73.40;18.17;;;;;;;1.26;100.00;98358.50;5072259;28;20464;-74
2021/12/17 01:08:20;;;;;;;46.50;14.73;;;;;;;1.30;100.00;98362.25;5072374;28;20432;-74
2021/12/17 01:10:52;;;;;;;54.33;14.07;;;;;;;1.33;100.00;98372.22;5072138;28;20444;-74
2021/12/17 01:13:45;;;;;;;45.50;12.23;;;;;;;0.97;100.00;98352.94;5070064;28;20432;-74
2021/12/17 01:16:35;;;;;;;24.50;11.40;;;;;;;0.99;100.00;98357.94;5075974;28;21014;-74
2021/12/17 01:19:46;;;;;;;57.50;15.80;;;;;;;1.18;100.00;98370.75;5073856;28;20435;-73
2021/12/17 01:37:56;;;;;;;24.43;8.77;;;;;;;0.97;100.00;98334.72;5071492;28;20562;-73
2021/12/17 01:42:50;;;;;;;33.13;10.00;;;;;;;0.82;100.00;98340.25;5065515;28;20432;-74
2021/12/17 01:45:17;;;;;;;34.83;10.43;;;;;;;0.89;100.00;98363.63;5088310;28;20502;-73
2021/12/17 01:47:44;;;;;;;14.30;8.57;;;;;;;0.83;100.00;98354.88;5071405;28;20460;-74
2021/12/17 01:56:01;;;;;;;14.67;7.03;;;;;;;0.51;100.00;98329.88;5071333;28;20464;-73
2021/12/17 02:01:14;;;;;;;26.80;9.40;;;;;;;0.63;100.00;98346.41;5071194;28;20490;-73
2021/12/17 02:03:42;;;;;;;23.50;7.90;;;;;;;0.57;100.00;98340.25;5071185;28;20802;-73
2021/12/17 02:06:09;;;;;;;30.40;8.67;;;;;;;0.66;100.00;98338.16;5070967;28;20461;-73
2021/12/17 02:08:36;;;;;;;22.43;7.07;;;;;;;0.50;100.00;98321.28;5071272;28;20436;-73
2021/12/17 02:32:53;;;;;;;47.53;14.30;;;;;;;-0.58;100.00;98317.06;5066396;28;20447;-73
2021/12/17 02:35:33;;;;;;;26.93;12.10;;;;;;;-0.49;100.00;98298.47;5087519;28;20456;-73
2021/12/17 02:38:02;;;;;;;28.90;11.73;;;;;;;-0.16;100.00;98310.50;5070378;28;20487;-73
2021/12/17 02:47:00;;;;;;;29.13;10.37;;;;;;;-0.54;100.00;98313.06;5070341;28;21001;-73
2021/12/17 02:49:29;;;;;;;33.50;13.40;;;;;;;-0.74;100.00;98313.94;5070489;28;20440;-73
2021/12/17 02:51:56;;;;;;;33.50;12.73;;;;;;;-0.55;100.00;98308.88;5070236;28;20935;-73
2021/12/17 02:54:24;;;;;;;21.00;12.67;;;;;;;-0.51;100.00;98336.06;5070327;28;20459;-73
2021/12/17 02:56:51;;;;;;;26.10;12.03;;;;;;;-0.65;100.00;98323.09;5070122;28;20456;-72
2021/12/17 02:59:19;;;;;;;26.13;11.10;;;;;;;-0.52;100.00;98324.88;5070351;28;21172;-73
2021/12/17 03:01:46;;;;;;;37.40;13.50;;;;;;;-0.56;100.00;98309.88;5086961;28;21041;-73
2021/12/17 03:04:15;;;;;;;22.03;11.13;;;;;;;-0.35;100.00;98317.41;5070122;28;20436;-73
2021/12/17 03:06:42;;;;;;;25.83;12.37;;;;;;;-0.38;100.00;98321.22;5069931;28;20467;-73
2021/12/17 03:09:09;;;;;;;19.60;12.93;;;;;;;-0.26;100.00;98323.97;5069996;28;20494;-73
2021/12/17 03:11:36;;;;;;;34.83;13.33;;;;;;;-0.19;100.00;98342.09;5069981;28;20943;-73
2021/12/17 03:14:03;;;;;;;69.90;12.40;;;;;;;-0.31;100.00;98353.16;5070314;28;21111;-73
2021/12/17 03:16:39;;;;;;;21.97;10.40;;;;;;;-0.28;100.00;98344.13;5070038;28;20448;-73
2021/12/17 03:19:27;;;;;;;15.80;10.00;;;;;;;-0.31;100.00;98319.38;5070631;28;20408;-73
2021/12/17 03:24:39;;;;;;;49.33;12.20;;;;;;;-0.46;100.00;98331.03;5069908;28;20506;-73
2021/12/17 03:27:06;;;;;;;87.43;15.03;;;;;;;-0.64;100.00;98313.50;5086707;28;20538;-73
2021/12/17 03:29:36;;;;;;;38.40;10.87;;;;;;;-0.26;100.00;98338.75;5070648;28;21318;-73
2021/12/17 03:32:05;;;;;;;85.50;17.50;;;;;;;-0.21;100.00;98331.13;5086079;28;20436;-73
2021/12/17 03:34:32;;;;;;;68.77;13.80;;;;;;;-0.15;100.00;98333.69;5069696;28;20541;-72
2021/12/17 03:36:58;;;;;;;61.37;13.63;;;;;;;-0.12;100.00;98333.28;5069597;28;20459;-73
2021/12/17 03:39:33;;;;;;;61.57;12.03;;;;;;;-0.25;100.00;98317.75;5069766;28;20456;-73
2021/12/17 03:42:01;;;;;;;29.93;11.57;;;;;;;-0.31;100.00;98328.97;5069629;28;20436;-72
2021/12/17 03:44:33;;;;;;;62.20;15.20;;;;;;;-0.91;100.00;98294.63;5069702;28;20482;-72
2021/12/17 03:47:01;;;;;;;34.43;9.93;;;;;;;-0.61;100.00;98334.66;5086724;28;20492;-72
2021/12/17 03:49:36;;;;;;;54.10;10.37;;;;;;;-0.74;100.00;98331.31;5086530;28;20439;-72
2021/12/17 03:52:06;;;;;;;129.90;14.40;;;;;;;-1.21;100.00;98321.00;5086696;28;20781;-72
2021/12/17 03:54:37;;;;;;;51.67;12.30;;;;;;;-0.86;100.00;98314.75;5069576;28;20436;-73
2021/12/17 03:57:09;;;;;;;85.73;14.83;;;;;;;-1.02;100.00;98303.81;5069692;28;20460;-72
2021/12/17 03:59:39;;;;;;;71.40;15.30;;;;;;;-1.19;100.00;98297.47;5069816;28;20533;-72
2021/12/17 04:02:06;;;;;;;62.60;12.70;;;;;;;-1.18;100.00;98309.44;5069520;28;20486;-72
2021/12/17 04:04:33;;;;;;;18.77;6.70;;;;;;;-1.18;100.00;98308.63;5069508;28;20443;-73
2021/12/17 04:07:18;;;;;;;15.20;5.60;;;;;;;-1.22;100.00;98322.00;5069879;28;20490;-73
2021/12/17 04:10:04;;;;;;;22.47;7.87;;;;;;;-1.50;100.00;98313.63;5084440;28;20432;-72
2021/12/17 04:12:58;;;;;;;49.17;7.20;;;;;;;-1.62;100.00;98300.44;5071035;28;20447;-72
2021/12/17 04:15:19;;;;;;;36.17;6.90;;;;;;;-1.64;100.00;98323.19;5073230;28;20439;-72
2021/12/17 04:17:54;;;;;;;31.40;7.17;;;;;;;-1.65;100.00;98292.28;5073595;28;21055;-72
2021/12/17 04:20:21;;;;;;;31.30;8.10;;;;;;;-1.46;100.00;98298.47;5073353;28;20450;-72
2021/12/17 04:22:48;;;;;;;25.93;6.60;;;;;;;-1.50;100.00;98309.22;5089997;28;20454;-72
2021/12/17 04:25:16;;;;;;;48.33;7.80;;;;;;;-1.57;100.00;98299.88;5072819;28;20440;-72
2021/12/17 04:27:42;;;;;;;39.07;8.10;;;;;;;-1.47;100.00;98321.00;5072824;28;20456;-72
2021/12/17 04:30:10;;;;;;;66.63;8.70;;;;;;;-1.48;100.00;98319.41;5089814;28;20432;-72
2021/12/17 04:32:37;;;;;;;52.60;9.30;;;;;;;-1.57;100.00;98311.03;5074184;28;20437;-72
2021/12/17 04:35:05;;;;;;;23.57;6.67;;;;;;;-1.51;100.00;98302.44;5089822;28;20450;-72
2021/12/17 04:37:43;;;;;;;94.77;13.03;;;;;;;-1.49;100.00;98310.03;5072802;28;20476;-72
2021/12/17 04:40:11;;;;;;;21.80;8.27;;;;;;;-1.52;100.00;98311.22;5089654;28;20436;-72
2021/12/17 04:45:14;;;;;;;133.87;15.97;;;;;;;-1.64;100.00;98332.78;5089435;28;20451;-72
2021/12/17 04:59:08;;;;;;;63.47;10.60;;;;;;;-1.61;100.00;98338.34;5072424;28;20447;-72
2021/12/17 05:01:35;;;;;;;48.80;13.93;;;;;;;-1.34;100.00;98365.09;5072287;28;20790;-72
2021/12/17 05:04:03;;;;;;;45.27;10.03;;;;;;;-1.37;100.00;98357.72;5072472;28;20859;-72
2021/12/17 05:06:31;;;;;;;27.93;10.53;;;;;;;-1.22;100.00;98381.69;5072331;28;20484;-72
2021/12/17 05:09:10;;;;;;;36.27;10.20;;;;;;;-1.17;100.00;98375.13;5072482;28;20435;-72
2021/12/17 05:19:49;;;;;;;30.87;7.60;;;;;;;-1.21;100.00;98352.13;5058582;28;20436;-72
2021/12/17 05:22:18;;;;;;;71.97;10.90;;;;;;;-1.24;100.00;98365.50;5088917;28;21018;-72
2021/12/17 05:24:45;;;;;;;83.33;10.70;;;;;;;-1.30;100.00;98371.50;5087608;28;20440;-72
2021/12/17 05:27:12;;;;;;;41.67;6.40;;;;;;;-1.06;100.00;98370.13;5088496;28;20909;-72
2021/12/17 05:30:00;;;;;;;21.80;5.87;;;;;;;-1.02;100.00;98339.34;5088886;28;20882;-72
2021/12/17 05:32:27;;;;;;;50.37;11.67;;;;;;;-0.81;100.00;98344.28;5088643;28;20440;-72
2021/12/17 05:34:59;;;;;;;62.97;8.77;;;;;;;-1.03;100.00;98320.41;5073230;28;20437;-71
2021/12/17 05:37:25;;;;;;;28.73;6.80;;;;;;;-1.02;100.00;98321.97;5063570;28;20529;-71
2021/12/17 05:39:52;;;;;;;29.53;6.60;;;;;;;-0.94;100.00;98337.31;5079586;28;20439;-71
2021/12/17 05:42:19;;;;;;;54.03;8.33;;;;;;;-1.01;100.00;98326.19;5079046;28;20436;-72
2021/12/17 05:45:09;;;;;;;43.50;7.73;;;;;;;-0.82;100.00;98350.50;5057950;28;20471;-72
2021/12/17 05:47:36;;;;;;;34.40;7.40;;;;;;;-0.90;100.00;98341.13;5072071;28;20475;-72
2021/12/17 05:50:04;;;;;;;26.50;9.43;;;;;;;-0.85;100.00;98348.31;5072965;28;20478;-72
2021/12/17 05:52:30;;;;;;;32.77;7.70;;;;;;;-0.94;100.00;98328.75;5088435;28;20440;-72
2021/12/17 05:54:57;;;;;;;29.83;7.67;;;;;;;-0.77;100.00;98358.50;5071453;28;20460;-72
2021/12/17 05:57:24;;;;;;;12.03;6.13;;;;;;;-0.90;100.00;98332.56;5071460;28;20461;-72
2021/12/17 05:59:50;;;;;;;16.23;7.77;;;;;;;-0.79;100.00;98336.31;5072586;28;20435;-72
2021/12/17 06:02:19;;;;;;;51.80;10.33;;;;;;;-0.69;100.00;98352.25;5088110;28;20489;-72
2021/12/17 06:04:49;;;;;;;56.43;10.73;;;;;;;-0.79;100.00;98352.72;5071219;28;20424;-72
2021/12/17 06:07:36;;;;;;;40.57;9.33;;;;;;;-0.79;100.00;98360.50;5071125;28;20475;-72
2021/12/17 06:10:05;;;;;;;38.60;7.93;;;;;;;-0.74;100.00;98358.06;5071415;28;20451;-72
2021/12/17 06:12:40;;;;;;;39.10;9.87;;;;;;;-0.67;100.00;98358.88;5055801;28;20454;-72
2021/12/17 06:15:10;;;;;;;14.83;7.60;;;;;;;-0.71;100.00;98339.47;5071127;28;20448;-72
2021/12/17 06:17:38;;;;;;;16.00;6.97;;;;;;;-0.72;100.00;98344.88;5087814;28;20459;-72
2021/12/17 06:20:07;;;;;;;18.10;9.07;;;;;;;-0.58;100.00;98369.03;5070962;28;20447;-72
2021/12/17 06:22:36;;;;;;;51.77;10.37;;;;;;;-0.63;100.00;98361.84;5070793;28;20448;-72
2021/12/17 06:25:10;;;;;;;27.97;10.10;;;;;;;-0.51;100.00;98369.81;5070980;28;20444;-72
2021/12/17 06:27:38;;;;;;;26.00;9.80;;;;;;;-0.59;100.00;98352.66;5087425;28;20483;-72
2021/12/17 06:30:08;;;;;;;18.23;10.37;;;;;;;-0.49;100.00;98370.41;5070840;28;20804;-72
2021/12/17 06:32:34;;;;;;;12.33;7.83;;;;;;;-0.47;100.00;98371.78;5070696;28;20451;-72
2021/12/17 06:35:03;;;;;;;35.77;8.70;;;;;;;-0.41;100.00;98367.56;5070335;28;20845;-72
2021/12/17 06:37:31;;;;;;;32.37;9.53;;;;;;;-0.58;100.00;98340.44;5070599;28;20986;-72
2021/12/17 06:39:58;;;;;;;19.63;8.43;;;;;;;-0.57;100.00;98339.44;5087408;28;20445;-72
2021/12/17 06:42:26;;;;;;;19.60;9.40;;;;;;;-0.41;100.00;98357.97;5070719;28;20823;-72
2021/12/17 06:44:57;;;;;;;41.40;12.43;;;;;;;-0.44;100.00;98361.00;5070578;28;20523;-72
2021/12/17 06:47:30;;;;;;;29.10;9.60;;;;;;;-0.42;100.00;98364.19;5087376;28;20470;-72
2021/12/17 07:10:59;;;;;;;47.63;9.13;;;;;;;-0.87;100.00;98383.28;5070015;28;20468;-72
2021/12/17 07:34:12;;;;;;;30.33;15.10;;;;;;;-0.72;100.00;98394.22;5086788;28;20436;-73
2021/12/17 07:39:21;;;;;;;32.43;10.33;;;;;;;-0.78;100.00;98377.66;5086577;28;20470;-73
2021/12/17 07:41:48;;;;;;;29.90;10.80;;;;;;;-0.59;100.00;98399.41;5071334;28;20471;-72
2021/12/17 07:44:46;;;;;;;22.90;10.23;;;;;;;-0.44;100.00;98389.56;5070340;28;20899;-72
2021/12/17 07:47:16;;;;;;;42.80;9.87;;;;;;;-0.67;100.00;98361.47;5072460;28;20464;-72
2021/12/17 07:49:51;;;;;;;49.57;10.00;;;;;;;-0.60;100.00;98383.03;5074062;28;20451;-73
2021/12/17 07:52:18;;;;;;;44.57;10.33;;;;;;;-0.77;100.00;98374.06;5073782;28;20523;-73
2021/12/17 07:54:45;;;;;;;37.17;10.00;;;;;;;-0.61;100.00;98381.44;5090418;28;20523;-73
2021/12/17 07:57:12;;;;;;;72.93;12.13;;;;;;;-0.54;100.00;98381.41;5073754;28;20986;-73
2021/12/17 07:59:39;;;;;;;66.83;11.43;;;;;;;-0.57;100.00;98386.22;5090472;28;20432;-73
2021/12/17 08:02:07;;;;;;;90.70;14.00;;;;;;;-0.82;100.00;98362.69;5073995;28;20436;-73
2021/12/17 08:04:40;;;;;;;88.83;13.10;;;;;;;-0.94;100.00;98359.91;5074767;28;21051;-73
2021/12/17 08:07:11;;;;;;;76.47;11.07;;;;;;;-0.94;100.00;98367.69;5073333;28;20482;-73
2021/12/17 08:09:40;;;;;;;54.13;9.47;;;;;;;-0.92;100.00;98368.31;5073678;28;20824;-73
2021/12/17 08:12:09;;;;;;;48.17;9.67;;;;;;;-0.89;100.00;98360.09;5090203;28;20447;-73
2021/12/17 08:14:54;;;;;;;73.97;13.70;;;;;;;-1.03;100.00;98355.94;5073268;28;20821;-73
2021/12/17 08:17:42;;;;;;;31.37;8.57;;;;;;;-0.68;100.00;98379.84;5073166;28;20468;-72
2021/12/17 08:25:51;;;;;;;52.93;11.47;;;;;;;-0.65;100.00;98372.47;5089964;28;20447;-73
2021/12/17 08:28:18;;;;;;;48.53;11.60;;;;;;;-0.41;100.00;98394.34;5089822;28;20459;-73
2021/12/17 08:30:45;;;;;;;44.07;9.77;;;;;;;-0.23;100.00;98392.91;5072845;28;20855;-73
2021/12/17 08:33:20;;;;;;;21.53;8.73;;;;;;;-0.37;100.00;98364.38;5072979;28;21077;-72
2021/12/17 08:35:52;;;;;;;60.00;9.40;;;;;;;-0.61;100.00;98370.25;5056963;28;20475;-73
2021/12/17 08:38:32;;;;;;;52.20;13.03;;;;;;;-0.72;100.00;98368.25;5072866;28;20452;-73
2021/12/17 08:41:03;;;;;;;36.13;9.57;;;;;;;-0.65;100.00;98379.44;5089636;28;20531;-73
2021/12/17 08:43:31;;;;;;;50.67;13.20;;;;;;;-0.54;100.00;98381.41;5072721;28;20476;-73
2021/12/17 08:45:59;;;;;;;30.83;9.67;;;;;;;-0.20;100.00;98379.50;5072853;28;20441;-73
2021/12/17 08:48:44;;;;;;;21.37;8.40;;;;;;;-0.19;100.00;98384.50;5074324;28;20918;-73
2021/12/17 08:51:34;;;;;;;41.53;9.53;;;;;;;-0.26;100.00;98373.34;5073488;28;20528;-73
2021/12/17 08:54:03;;;;;;;20.77;9.50;;;;;;;-0.02;100.00;98393.41;5072604;28;20962;-73
2021/12/17 08:56:34;;;;;;;33.27;10.03;;;;;;;-0.10;100.00;98370.28;5089546;28;20470;-73
2021/12/17 08:59:05;;;;;;;30.37;10.23;;;;;;;-0.19;100.00;98349.91;5089173;28;20436;-73
2021/12/17 09:01:44;;;;;;;31.20;8.93;;;;;;;-0.02;100.00;98369.22;5072505;28;20464;-73
2021/12/17 09:04:11;;;;;;;13.20;7.40;;;;;;;-0.05;100.00;98370.44;5089288;28;20432;-73
2021/12/17 09:06:44;;;;;;;17.87;7.90;;;;;;;-0.12;100.00;98381.88;5056476;28;20464;-73
2021/12/17 09:09:11;;;;;;;15.00;8.43;;;;;;;-0.26;100.00;98404.53;5072201;28;20441;-73
2021/12/17 09:11:40;;;;;;;22.83;10.30;;;;;;;-0.32;100.00;98402.72;5055943;28;20535;-73
2021/12/17 09:14:19;;;;;;;31.97;9.70;;;;;;;-0.37;100.00;98413.75;5072159;28;20543;-73
2021/12/17 09:16:56;;;;;;;22.67;8.30;;;;;;;-0.27;100.00;98389.91;5057105;28;20558;-73
2021/12/17 09:19:28;;;;;;;37.57;11.03;;;;;;;-0.24;100.00;98397.31;5072424;28;20890;-73
2021/12/17 09:22:00;;;;;;;18.00;9.20;;;;;;;0.00;100.00;98414.03;5088114;28;20425;-73
2021/12/17 09:24:36;;;;;;;20.77;9.20;;;;;;;-0.04;100.00;98410.22;5072192;28;20959;-73
2021/12/17 09:27:18;;;;;;;14.57;9.70;;;;;;;-0.08;100.00;98402.06;5072352;28;20472;-73
2021/12/17 09:30:08;;;;;;;15.07;10.83;;;;;;;0.09;100.00;98424.97;5071279;28;20806;-73
2021/12/17 09:32:35;;;;;;;14.93;10.77;;;;;;;-0.02;100.00;98427.22;5072137;28;20444;-74
2021/12/17 09:35:02;;;;;;;18.43;11.80;;;;;;;-0.02;100.00;98411.63;5072032;28;20441;-73
2021/12/17 09:37:29;;;;;;;18.97;12.43;;;;;;;0.01;100.00;98413.03;5088587;28;20463;-74
2021/12/17 09:39:56;;;;;;;18.77;10.40;;;;;;;0.09;100.00;98412.78;5088505;28;20805;-74
2021/12/17 09:42:24;;;;;;;14.80;10.97;;;;;;;-0.04;100.00;98382.44;5088522;28;20467;-74
2021/12/17 09:44:51;;;;;;;16.20;9.93;;;;;;;0.20;100.00;98409.53;5071536;28;20543;-73
2021/12/17 09:47:17;;;;;;;17.63;11.47;;;;;;;0.27;100.00;98425.91;5088318;28;21009;-74
2021/12/17 09:49:45;;;;;;;16.57;10.97;;;;;;;0.11;100.00;98415.97;5054952;28;20844;-74
2021/12/17 09:52:12;;;;;;;13.00;9.77;;;;;;;0.06;100.00;98415.00;5073045;28;20790;-74
2021/12/17 09:54:39;;;;;;;15.90;10.47;;;;;;;0.03;100.00;98420.63;5072822;28;20432;-74
2021/12/17 09:57:06;;;;;;;15.87;11.33;;;;;;;0.24;100.00;98422.91;5071316;28;20456;-74
2021/12/17 09:59:33;;;;;;;18.23;12.17;;;;;;;0.11;100.00;98396.97;5071365;28;20485;-74
2021/12/17 10:01:59;;;;;;;16.70;11.50;;;;;;;0.30;100.00;98396.09;5071309;28;20432;-74
2021/12/17 10:04:29;;;;;;;21.33;12.30;;;;;;;0.33;100.00;98410.47;5071443;28;20444;-74
2021/12/17 10:07:20;;;;;;;13.93;11.10;;;;;;;0.50;100.00;98409.75;5072422;28;20553;-74
2021/12/17 10:09:53;;;;;;;15.03;10.20;;;;;;;0.45;100.00;98380.19;5071975;28;20416;-74
2021/12/17 10:12:31;;;;;;;13.20;9.13;;;;;;;0.41;100.00;98379.00;5087978;28;20468;-74
2021/12/17 10:15:07;;;;;;;12.80;9.07;;;;;;;0.34;100.00;98393.84;5054750;28;20523;-74
2021/12/17 10:17:36;;;;;;;14.20;10.57;;;;;;;0.34;100.00;98384.25;5071019;28;20489;-74
2021/12/17 10:20:05;;;;;;;12.47;10.10;;;;;;;0.45;100.00;98396.59;5072303;28;20468;-74
2021/12/17 10:22:31;;;;;;;12.40;10.10;;;;;;;0.38;100.00;98372.41;5070847;28;20440;-74
2021/12/17 10:25:09;;;;;;;15.00;10.13;;;;;;;0.48;100.00;98401.38;5087753;28;20444;-74
2021/12/17 10:27:41;;;;;;;17.17;10.77;;;;;;;0.56;100.00;98393.31;5070807;28;20490;-74
2021/12/17 10:30:14;;;;;;;13.83;10.50;;;;;;;0.54;100.00;98371.13;5071119;28;20432;-74
2021/12/17 10:32:44;;;;;;;14.93;10.97;;;;;;;0.52;100.00;98386.91;5072074;28;20420;-74
2021/12/17 10:35:15;;;;;;;18.90;10.73;;;;;;;0.72;100.00;98386.78;5070840;28;20451;-74
2021/12/17 10:37:57;;;;;;;13.93;10.77;;;;;;;0.70;100.00;98403.63;5070590;28;20875;-74
2021/12/17 10:40:54;;;;;;;14.77;10.30;;;;;;;0.74;100.00;98404.81;5070618;28;20440;-74
2021/12/17 10:43:27;;;;;;;14.43;10.50;;;;;;;0.69;100.00;98402.84;5071908;28;20486;-74
2021/12/17 10:46:01;;;;;;;21.13;10.73;;;;;;;0.70;100.00;98390.63;5087344;28;20533;-74
2021/12/17 10:48:36;;;;;;;15.60;10.57;;;;;;;0.66;100.00;98381.63;5087243;28;20460;-74
2021/12/17 10:51:12;;;;;;;14.23;8.47;;;;;;;0.72;100.00;98393.81;5087269;28;20577;-74
2021/12/17 10:53:54;;;;;;;15.63;10.97;;;;;;;0.86;100.00;98390.09;5071708;28;20444;-74
2021/12/17 10:56:32;;;;;;;13.73;8.37;;;;;;;0.90;100.00;98388.66;5070598;28;20503;-74
2021/12/17 10:59:14;;;;;;;13.83;9.30;;;;;;;0.78;100.00;98354.69;5054188;28;20428;-74
2021/12/17 11:01:44;;;;;;;12.47;8.23;;;;;;;0.89;100.00;98368.84;5087459;28;20532;-74
2021/12/17 11:04:22;;;;;;;15.33;8.20;;;;;;;1.07;100.00;98362.84;5072129;28;20482;-74
2021/12/17 11:06:57;;;;;;;12.23;8.77;;;;;;;0.84;100.00;98369.47;5069913;28;20460;-74
2021/12/17 11:09:41;;;;;;;14.73;7.20;;;;;;;0.71;100.00;98380.00;5070376;28;20424;-74
2021/12/17 11:12:12;;;;;;;12.80;7.83;;;;;;;0.71;100.00;98376.59;5070361;28;20964;-74
2021/12/17 11:14:44;;;;;;;14.27;10.50;;;;;;;0.71;100.00;98379.19;5070341;28;20486;-74
2021/12/17 11:17:12;;;;;;;17.50;9.87;;;;;;;0.93;100.00;98361.38;5086710;28;20456;-74
2021/12/17 11:20:04;;;;;;;19.23;10.30;;;;;;;0.84;100.00;98364.28;5086968;28;20512;-74
2021/12/17 11:22:31;;;;;;;16.53;9.47;;;;;;;0.87;100.00;98365.66;5085892;28;21305;-74
2021/12/17 11:25:01;;;;;;;16.90;12.50;;;;;;;0.87;100.00;98348.22;5071241;28;20432;-74
2021/12/17 11:27:28;;;;;;;13.67;10.67;;;;;;;0.85;100.00;98345.03;5070273;28;20464;-74
2021/12/17 11:29:55;;;;;;;18.97;10.50;;;;;;;0.83;100.00;98339.25;5071456;28;20467;-74
2021/12/17 11:32:22;;;;;;;19.33;13.90;;;;;;;0.87;100.00;98365.66;5070013;28;20458;-74
2021/12/17 11:34:49;;;;;;;16.00;11.13;;;;;;;0.96;100.00;98363.59;5071438;28;20434;-74
2021/12/17 11:37:17;;;;;;;15.47;12.30;;;;;;;0.99;100.00;98376.97;5069808;28;20467;-74
2021/12/17 11:39:52;;;;;;;23.83;13.70;;;;;;;0.98;100.00;98369.38;5086478;28;20452;-73
2021/12/17 11:42:43;;;;;;;19.20;12.93;;;;;;;1.02;100.00;98371.31;5069847;28;20829;-73
2021/12/17 11:45:24;;;;;;;24.47;15.10;;;;;;;1.20;100.00;98375.75;5069768;28;20482;-74
2021/12/17 11:47:54;;;;;;;22.60;13.20;;;;;;;1.13;100.00;98375.84;5069626;28;20463;-73
2021/12/17 11:50:21;;;;;;;20.70;13.10;;;;;;;1.03;100.00;98380.72;5069633;28;20443;-73
2021/12/17 11:52:53;;;;;;;24.30;15.70;;;;;;;1.14;100.00;98372.22;5069655;28;20440;-74
2021/12/17 11:55:20;;;;;;;22.50;13.73;;;;;;;1.08;100.00;98370.47;5069519;28;20798;-74
2021/12/17 11:57:52;;;;;;;21.57;14.13;;;;;;;1.15;100.00;98371.22;5069623;28;20543;-74
2021/12/17 12:00:25;;;;;;;27.70;15.43;;;;;;;1.15;100.00;98365.19;5070927;28;20428;-74
2021/12/17 12:02:56;;;;;;;24.50;14.73;;;;;;;1.28;100.00;98348.63;5086431;28;20456;-74
2021/12/17 12:05:35;;;;;;;26.27;15.23;;;;;;;1.44;100.00;98355.88;5069574;28;20802;-74
2021/12/17 12:08:34;;;;;;;20.00;13.60;;;;;;;1.27;100.00;98357.47;5069592;28;20502;-74
2021/12/17 12:11:11;;;;;;;23.00;14.83;;;;;;;1.28;100.00;98366.88;5070834;28;20420;-74
2021/12/17 12:13:44;;;;;;;20.40;13.07;;;;;;;1.22;100.00;98371.16;5070824;28;20489;-74
2021/12/17 12:16:15;;;;;;;23.07;15.00;;;;;;;1.19;100.00;98379.38;5069384;28;20466;-73
2021/12/17 12:18:49;;;;;;;23.60;13.83;;;;;;;1.21;100.00;98363.56;5069351;28;20428;-74
2021/12/17 12:21:18;;;;;;;22.93;14.87;;;;;;;1.29;100.00;98366.66;5069293;28;20440;-73
2021/12/17 12:23:48;;;;;;;21.40;13.10;;;;;;;1.17;100.00;98350.94;5086001;28;20532;-74
2021/12/17 12:26:54;;;;;;;25.47;16.67;;;;;;;1.25;100.00;98357.69;5070882;28;20870;-74
2021/12/17 12:29:26;;;;;;;20.53;13.53;;;;;;;1.16;100.00;98341.53;5061287;28;20486;-74
2021/12/17 12:31:58;;;;;;;24.67;15.67;;;;;;;1.30;100.00;98360.44;5070956;28;20424;-73
2021/12/17 12:34:32;;;;;;;19.97;13.73;;;;;;;1.40;100.00;98362.56;5089366;28;20890;-73
2021/12/17 12:37:23;;;;;;;20.90;13.83;;;;;;;1.42;100.00;98356.09;5074205;28;20464;-74
2021/12/17 12:39:58;;;;;;;20.43;14.60;;;;;;;1.48;100.00;98360.47;5074259;28;20416;-74
2021/12/17 12:42:29;;;;;;;22.23;13.97;;;;;;;1.42;100.00;98355.31;5072837;28;20933;-73
2021/12/17 12:44:55;;;;;;;19.87;13.90;;;;;;;1.48;100.00;98350.03;5089990;28;20498;-74
2021/12/17 12:47:31;;;;;;;20.50;14.30;;;;;;;1.70;100.00;98346.97;5072562;28;20478;-74
2021/12/17 12:50:04;;;;;;;18.43;13.23;;;;;;;1.85;100.00;98352.59;5074141;28;20412;-74
2021/12/17 12:52:36;;;;;;;19.63;14.53;;;;;;;1.95;100.00;98347.66;5072822;28;20447;-74
2021/12/17 12:55:10;;;;;;;19.77;12.33;;;;;;;1.96;100.00;98346.66;5072589;28;20498;-73
2021/12/17 12:57:40;;;;;;;21.53;13.60;;;;;;;1.98;100.00;98328.16;5072647;28;20451;-74
2021/12/17 13:00:45;;;;;;;21.00;14.37;;;;;;;1.95;100.00;98352.09;5073843;28;20428;-74
2021/12/17 13:03:22;;;;;;;19.00;12.57;;;;;;;1.83;100.00;98336.38;5029137;28;20444;-74
2021/12/17 13:05:49;;;;;;;22.43;14.30;;;;;;;1.83;100.00;98318.13;5072806;28;20432;-74
2021/12/17 13:08:19;;;;;;;23.67;13.87;;;;;;;2.01;100.00;98306.88;5072309;28;20460;-73
2021/12/17 13:10:55;;;;;;;16.67;12.43;;;;;;;1.97;100.00;98319.53;5074100;28;20424;-73
2021/12/17 13:16:20;;;;;;;15.07;11.80;;;;;;;2.08;100.00;98342.28;5089334;28;20433;-73
2021/12/17 13:21:45;;;;;;;16.23;11.20;;;;;;;1.95;100.00;98323.38;5073534;28;21095;-74
2021/12/17 13:24:20;;;;;;;18.53;12.77;;;;;;;1.93;100.00;98315.78;5072151;28;20535;-74
2021/12/17 13:26:50;;;;;;;21.43;12.50;;;;;;;1.96;100.00;98331.00;5088971;28;20463;-73
2021/12/17 13:29:21;;;;;;;17.80;12.10;;;;;;;2.14;100.00;98345.81;5072112;28;20498;-73
2021/12/17 13:32:01;;;;;;;17.13;11.90;;;;;;;2.14;100.00;98337.19;5073336;28;20961;-74
2021/12/17 13:34:37;;;;;;;18.53;14.30;;;;;;;2.23;100.00;98333.25;5089837;28;20443;-72
2021/12/17 13:37:10;;;;;;;15.70;12.57;;;;;;;2.17;100.00;98327.13;5073316;28;20508;-72
2021/12/17 13:39:47;;;;;;;15.53;12.37;;;;;;;1.96;100.00;98325.78;5071948;28;20472;-72
2021/12/17 13:42:21;;;;;;;17.67;13.27;;;;;;;2.00;100.00;98332.16;5088617;28;20428;-72
2021/12/17 13:44:50;;;;;;;13.23;10.73;;;;;;;1.71;100.00;98304.22;5070928;28;20437;-72
2021/12/17 13:47:21;;;;;;;19.50;11.10;;;;;;;1.95;100.00;98332.00;5088450;28;20464;-72
2021/12/17 13:50:06;;;;;;;18.17;12.23;;;;;;;2.14;100.00;98332.78;5071995;28;20495;-72
2021/12/17 13:52:55;;;;;;;17.30;12.07;;;;;;;1.98;100.00;98317.72;5071869;28;20423;-73
2021/12/17 13:55:28;;;;;;;17.47;11.70;;;;;;;2.00;100.00;98326.94;5088542;28;20467;-73
2021/12/17 13:57:56;;;;;;;13.37;11.90;;;;;;;1.92;100.00;98335.06;5072203;28;20456;-73
2021/12/17 14:00:26;;;;;;;15.20;10.73;;;;;;;1.97;100.00;98332.59;5088621;28;20540;-73
2021/12/17 14:02:55;;;;;;;13.60;10.50;;;;;;;1.97;100.00;98303.09;5071543;28;20436;-73
2021/12/17 14:05:29;;;;;;;11.80;10.37;;;;;;;2.23;100.00;98318.38;5071786;28;20471;-73
2021/12/17 14:07:59;;;;;;;11.43;9.03;;;;;;;2.10;100.00;98334.22;5072558;28;20890;-73
2021/12/17 14:10:31;;;;;;;14.00;11.27;;;;;;;1.97;100.00;98331.78;5072704;28;20448;-72
2021/12/17 14:12:59;;;;;;;13.33;10.70;;;;;;;2.00;100.00;98341.78;5078627;28;20444;-72
2021/12/17 14:15:47;;;;;;;15.43;11.60;;;;;;;1.83;100.00;98330.38;5080617;28;20506;-73
2021/12/17 14:18:16;;;;;;;16.20;11.30;;;;;;;1.82;100.00;98307.91;5073359;28;20460;-73
2021/12/17 14:20:51;;;;;;;13.63;11.00;;;;;;;1.88;100.00;98301.84;5076812;28;20950;-73
2021/12/17 14:23:25;;;;;;;14.50;11.77;;;;;;;1.72;100.00;98319.66;5091909;28;20443;-73
2021/12/17 14:26:01;;;;;;;16.20;12.73;;;;;;;1.75;100.00;98314.03;5074669;28;20432;-73
2021/12/17 14:28:35;;;;;;;19.07;11.90;;;;;;;1.82;100.00;98320.97;5073664;28;20432;-73